Time;durP1;ratioP1;P1;durP2;ratioP2;P2;SDS_P1;SDS_P2;PMS_P1;PMS_P2;Temp;Humidity;BMP_temperature;BMP_pressure;BME280_temperature;BME280_humidity;BME280_pressure;Samples;Min_cycle;Max_cycle;Signal;HPM_P1;HPM_P2
2022/01/10 00:01:46;;;;;;;9.07;5.10;;;;;;;;;;5037188;28;20196;-80
2022/01/10 00:04:15;;;;;;;8.00;5.07;;;;;;;;;;5051085;28;20669;-79
2022/01/10 00:06:42;;;;;;;5.22;4.50;;;;;;;;;;5041222;28;20199;-80
2022/01/10 00:09:10;;;;;;;8.95;4.82;;;;;;;;;;5044958;28;20211;-80
2022/01/10 00:11:37;;;;;;;5.20;4.53;;;;;;;;;;5051747;28;21662;-79
2022/01/10 00:14:04;;;;;;;9.35;4.32;;;;;;;;;;5035727;28;20202;-79
2022/01/10 00:16:31;;;;;;;11.88;6.05;;;;;;;;;;5050045;28;20195;-80
2022/01/10 00:18:58;;;;;;;7.22;4.38;;;;;;;;;;5042270;28;20218;-80
2022/01/10 00:21:26;;;;;;;4.38;3.80;;;;;;;;;;5050057;28;20206;-79
2022/01/10 00:23:53;;;;;;;7.32;4.78;;;;;;;;;;5038240;28;20199;-79
2022/01/10 00:26:20;;;;;;;20.65;6.40;;;;;;;;;;5034628;28;20203;-79
2022/01/10 00:28:47;;;;;;;6.38;4.65;;;;;;;;;;5044638;28;20198;-79
2022/01/10 00:31:14;;;;;;;7.53;5.05;;;;;;;;;;5048450;28;20291;-79
2022/01/10 00:33:42;;;;;;;7.40;5.13;;;;;;;;;;5054839;28;20203;-80
2022/01/10 00:36:09;;;;;;;7.55;4.80;;;;;;;;;;5036107;28;20204;-80
2022/01/10 00:38:37;;;;;;;6.90;4.97;;;;;;;;;;5048318;28;20210;-80
2022/01/10 00:41:05;;;;;;;12.05;4.80;;;;;;;;;;5048586;28;20562;-80
2022/01/10 00:43:34;;;;;;;6.47;4.40;;;;;;;;;;5046076;28;20195;-81
2022/01/10 00:46:02;;;;;;;11.32;5.57;;;;;;;;;;5046467;28;20223;-81
2022/01/10 00:48:30;;;;;;;11.90;5.40;;;;;;;;;;5042609;28;20210;-79
2022/01/10 00:50:57;;;;;;;5.70;4.40;;;;;;;;;;5045376;28;20190;-81
2022/01/10 00:53:25;;;;;;;10.65;5.22;;;;;;;;;;5053571;28;20662;-79
2022/01/10 00:55:54;;;;;;;9.23;5.32;;;;;;;;;;5043459;28;20249;-80
2022/01/10 00:58:21;;;;;;;5.30;4.07;;;;;;;;;;5064025;28;20199;-78
2022/01/10 01:00:48;;;;;;;7.30;4.55;;;;;;;;;;5063270;28;20228;-78
2022/01/10 01:03:16;;;;;;;8.05;4.35;;;;;;;;;;5054101;28;20204;-79
2022/01/10 01:05:44;;;;;;;5.80;5.18;;;;;;;;;;5059172;28;20214;-79
2022/01/10 01:08:11;;;;;;;8.55;5.05;;;;;;;;;;5057248;28;20226;-78
2022/01/10 01:13:29;;;;;;;8.50;5.28;;;;;;;;;;5062097;28;20233;-79
2022/01/10 01:16:10;;;;;;;6.72;4.88;;;;;;;;;;5062401;28;20226;-78
2022/01/10 01:19:05;;;;;;;9.95;4.95;;;;;;;;;;5067266;28;20638;-79
2022/01/10 01:24:17;;;;;;;8.38;5.32;;;;;;;;;;5063890;28;20198;-79
2022/01/10 01:26:46;;;;;;;7.63;4.80;;;;;;;;;;5065837;28;20207;-79
2022/01/10 01:29:15;;;;;;;11.35;5.30;;;;;;;;;;5066712;28;20206;-79
2022/01/10 01:31:43;;;;;;;8.18;5.20;;;;;;;;;;5054950;28;20202;-79
2022/01/10 01:34:10;;;;;;;10.75;5.85;;;;;;;;;;5068767;28;20202;-79
2022/01/10 01:36:38;;;;;;;7.53;5.07;;;;;;;;;;5067259;28;20199;-78
2022/01/10 01:39:16;;;;;;;10.20;5.57;;;;;;;;;;5057757;28;20238;-79
2022/01/10 01:41:43;;;;;;;8.82;5.50;;;;;;;;;;5055269;28;20203;-78
2022/01/10 01:44:11;;;;;;;11.98;5.70;;;;;;;;;;5062834;28;20210;-78
2022/01/10 01:46:42;;;;;;;5.30;4.85;;;;;;;;;;5056990;28;21376;-78
2022/01/10 01:49:09;;;;;;;9.68;5.38;;;;;;;;;;5056955;28;21048;-79
2022/01/10 01:51:37;;;;;;;8.07;4.95;;;;;;;;;;5053380;28;20199;-78
2022/01/10 01:54:04;;;;;;;9.98;5.60;;;;;;;;;;5062806;28;20203;-79
2022/01/10 01:56:31;;;;;;;5.30;4.75;;;;;;;;;;5076685;28;20198;-79
2022/01/10 01:58:59;;;;;;;7.47;6.15;;;;;;;;;;5067455;28;20229;-79
2022/01/10 02:01:28;;;;;;;6.13;4.85;;;;;;;;;;5060549;28;20200;-79
2022/01/10 02:03:56;;;;;;;6.80;5.43;;;;;;;;;;5043027;28;20322;-79
2022/01/10 02:06:23;;;;;;;14.93;5.90;;;;;;;;;;5065348;28;20229;-78
2022/01/10 02:08:50;;;;;;;8.05;4.55;;;;;;;;;;5046253;28;20566;-80
2022/01/10 02:11:18;;;;;;;7.90;5.60;;;;;;;;;;5053567;28;20195;-79
2022/01/10 02:13:45;;;;;;;10.00;6.60;;;;;;;;;;5058518;28;20658;-78
2022/01/10 02:16:17;;;;;;;8.35;5.15;;;;;;;;;;5044269;28;20210;-78
2022/01/10 02:18:44;;;;;;;8.48;5.40;;;;;;;;;;5048322;28;20202;-78
2022/01/10 02:21:14;;;;;;;7.70;5.57;;;;;;;;;;5047428;28;20225;-78
2022/01/10 02:23:42;;;;;;;8.52;5.32;;;;;;;;;;5054456;28;20263;-79
2022/01/10 02:26:09;;;;;;;6.53;5.53;;;;;;;;;;5061037;28;20195;-79
2022/01/10 02:28:36;;;;;;;8.43;5.90;;;;;;;;;;5062701;28;20198;-79
2022/01/10 02:31:03;;;;;;;8.50;4.53;;;;;;;;;;5057772;28;20182;-79
2022/01/10 02:33:31;;;;;;;9.68;5.57;;;;;;;;;;5064969;28;20206;-79
2022/01/10 02:36:05;;;;;;;9.50;6.15;;;;;;;;;;5057183;28;20199;-79
2022/01/10 02:38:33;;;;;;;7.82;5.32;;;;;;;;;;5064020;28;20194;-79
2022/01/10 02:41:01;;;;;;;7.68;6.28;;;;;;;;;;5057658;28;20429;-79
2022/01/10 02:43:28;;;;;;;12.70;5.85;;;;;;;;;;5063450;28;20199;-79
2022/01/10 02:45:56;;;;;;;9.68;4.65;;;;;;;;;;5054655;28;20203;-79
2022/01/10 02:48:24;;;;;;;8.50;6.60;;;;;;;;;;5047332;28;20226;-78
2022/01/10 02:50:51;;;;;;;9.35;5.65;;;;;;;;;;5034177;28;20659;-78
2022/01/10 02:53:18;;;;;;;10.27;6.07;;;;;;;;;;5041012;28;20208;-79
2022/01/10 02:55:46;;;;;;;12.32;5.30;;;;;;;;;;5068841;28;20183;-79
2022/01/10 02:58:14;;;;;;;10.48;6.28;;;;;;;;;;5072839;28;20199;-78
2022/01/10 03:00:41;;;;;;;11.25;6.30;;;;;;;;;;5067231;28;20207;-78
2022/01/10 03:03:08;;;;;;;9.23;6.25;;;;;;;;;;5062247;28;20199;-78
2022/01/10 03:05:35;;;;;;;11.05;6.25;;;;;;;;;;5044207;28;20230;-77
2022/01/10 03:08:03;;;;;;;5.65;4.85;;;;;;;;;;5052874;28;20672;-76
2022/01/10 03:10:31;;;;;;;8.85;6.20;;;;;;;;;;5048799;28;20199;-76
2022/01/10 03:13:01;;;;;;;8.30;5.28;;;;;;;;;;5045897;28;20593;-76
2022/01/10 03:15:28;;;;;;;8.23;6.75;;;;;;;;;;5048790;28;20222;-76
2022/01/10 03:17:55;;;;;;;9.85;6.45;;;;;;;;;;5052646;28;20222;-75
2022/01/10 03:20:23;;;;;;;10.50;5.90;;;;;;;;;;5045273;28;20218;-75
2022/01/10 03:22:50;;;;;;;11.93;6.13;;;;;;;;;;5041300;28;20732;-79
2022/01/10 03:25:17;;;;;;;12.23;6.18;;;;;;;;;;5059320;28;20199;-78
2022/01/10 03:27:44;;;;;;;5.65;4.93;;;;;;;;;;5053811;28;20210;-78
2022/01/10 03:30:15;;;;;;;8.77;6.70;;;;;;;;;;5040090;28;20195;-79
2022/01/10 03:32:42;;;;;;;8.40;5.78;;;;;;;;;;5054705;28;20199;-78
2022/01/10 03:35:10;;;;;;;10.75;6.60;;;;;;;;;;5046464;28;20203;-79
2022/01/10 03:37:37;;;;;;;8.18;6.30;;;;;;;;;;5057064;28;20224;-78
2022/01/10 03:40:05;;;;;;;13.13;7.40;;;;;;;;;;5052036;28;20701;-78
2022/01/10 03:42:32;;;;;;;9.30;7.13;;;;;;;;;;5055922;28;20199;-78
2022/01/10 03:44:59;;;;;;;14.95;8.40;;;;;;;;;;5051009;28;20199;-79
2022/01/10 03:47:27;;;;;;;14.93;7.50;;;;;;;;;;5050897;28;20203;-79
2022/01/10 03:49:54;;;;;;;9.45;6.75;;;;;;;;;;5040295;28;20203;-78
2022/01/10 03:52:22;;;;;;;9.45;6.13;;;;;;;;;;5050116;28;20196;-79
2022/01/10 03:54:49;;;;;;;11.23;7.88;;;;;;;;;;5048512;28;20199;-79
2022/01/10 03:57:16;;;;;;;11.82;5.88;;;;;;;;;;5035866;28;20677;-79
2022/01/10 03:59:44;;;;;;;10.65;6.70;;;;;;;;;;5036985;28;20192;-78
2022/01/10 04:02:11;;;;;;;8.73;6.47;;;;;;;;;;5045194;28;20203;-78
2022/01/10 04:04:39;;;;;;;9.25;7.40;;;;;;;;;;5053705;28;20681;-78
2022/01/10 04:07:07;;;;;;;9.80;6.18;;;;;;;;;;5053468;28;20202;-78
2022/01/10 04:09:34;;;;;;;11.23;6.28;;;;;;;;;;5056708;28;20697;-77
2022/01/10 04:12:01;;;;;;;13.95;8.85;;;;;;;;;;5059373;28;20210;-79
2022/01/10 04:14:28;;;;;;;12.40;7.30;;;;;;;;;;5061085;28;20228;-77
2022/01/10 04:16:55;;;;;;;12.27;7.43;;;;;;;;;;5060426;28;20195;-78
2022/01/10 04:19:22;;;;;;;17.52;7.63;;;;;;;;;;5063806;28;20188;-78
2022/01/10 04:21:51;;;;;;;10.02;6.35;;;;;;;;;;5051741;28;20223;-79
2022/01/10 04:24:18;;;;;;;11.00;7.28;;;;;;;;;;5050126;28;20199;-78
2022/01/10 04:26:46;;;;;;;9.25;6.93;;;;;;;;;;5062405;28;20199;-78
2022/01/10 04:29:13;;;;;;;10.65;6.88;;;;;;;;;;5052343;28;20255;-79
2022/01/10 04:31:40;;;;;;;11.70;7.57;;;;;;;;;;5058779;28;20195;-78
2022/01/10 04:34:07;;;;;;;17.02;8.50;;;;;;;;;;5042726;28;20210;-78
2022/01/10 04:36:34;;;;;;;10.85;8.05;;;;;;;;;;5046095;28;20673;-78
2022/01/10 04:39:03;;;;;;;13.50;7.65;;;;;;;;;;5043866;28;20571;-78
2022/01/10 04:41:30;;;;;;;10.23;8.00;;;;;;;;;;5045005;28;20221;-78
2022/01/10 04:43:57;;;;;;;17.27;8.93;;;;;;;;;;5057923;28;20199;-77
2022/01/10 04:46:24;;;;;;;10.98;7.85;;;;;;;;;;5050897;28;20203;-78
2022/01/10 04:48:51;;;;;;;12.20;7.82;;;;;;;;;;5055217;28;20190;-78
2022/01/10 04:51:20;;;;;;;11.65;8.23;;;;;;;;;;5052139;28;20713;-78
2022/01/10 04:53:47;;;;;;;14.48;8.98;;;;;;;;;;5047666;28;20230;-78
2022/01/10 04:56:17;;;;;;;9.52;8.05;;;;;;;;;;5052963;28;20222;-77
2022/01/10 04:58:45;;;;;;;11.65;8.18;;;;;;;;;;5047960;28;20191;-78
2022/01/10 05:01:13;;;;;;;18.02;9.18;;;;;;;;;;5058217;28;20218;-79
2022/01/10 05:03:40;;;;;;;11.65;7.60;;;;;;;;;;5065671;28;20239;-78
2022/01/10 05:06:07;;;;;;;16.23;8.32;;;;;;;;;;5068255;28;20226;-78
2022/01/10 05:08:34;;;;;;;17.70;9.35;;;;;;;;;;5060887;28;20268;-79
2022/01/10 05:11:02;;;;;;;15.00;9.40;;;;;;;;;;5047474;28;20187;-77
2022/01/10 05:13:30;;;;;;;17.20;8.57;;;;;;;;;;5050974;28;20211;-77
2022/01/10 05:15:57;;;;;;;14.95;8.57;;;;;;;;;;5054012;28;20244;-77
2022/01/10 05:18:25;;;;;;;14.07;8.52;;;;;;;;;;5049345;28;20203;-77
2022/01/10 05:20:52;;;;;;;12.48;8.73;;;;;;;;;;5041591;28;20268;-77
2022/01/10 05:23:19;;;;;;;11.07;7.97;;;;;;;;;;5051222;28;20196;-78
2022/01/10 05:25:47;;;;;;;11.25;8.73;;;;;;;;;;5051451;28;20224;-77
2022/01/10 05:28:14;;;;;;;19.45;9.18;;;;;;;;;;5056300;28;20214;-78
2022/01/10 05:30:42;;;;;;;12.57;9.70;;;;;;;;;;5033814;28;20206;-77
2022/01/10 05:33:10;;;;;;;14.85;11.50;;;;;;;;;;5035179;28;20203;-77
2022/01/10 05:35:39;;;;;;;15.40;10.90;;;;;;;;;;5053142;28;20194;-77
2022/01/10 05:38:06;;;;;;;12.90;9.30;;;;;;;;;;5036361;28;20202;-77
2022/01/10 05:40:33;;;;;;;10.43;7.97;;;;;;;;;;5043406;28;20696;-78
2022/01/10 05:43:00;;;;;;;16.52;9.68;;;;;;;;;;5056363;28;20202;-78
2022/01/10 05:45:27;;;;;;;14.52;8.25;;;;;;;;;;5054487;28;20195;-78
2022/01/10 05:47:56;;;;;;;19.25;9.05;;;;;;;;;;5050891;28;20205;-77
2022/01/10 05:50:33;;;;;;;17.58;8.38;;;;;;;;;;5053352;28;20258;-77
2022/01/10 05:53:01;;;;;;;11.88;9.02;;;;;;;;;;5056927;28;20233;-78
2022/01/10 05:55:28;;;;;;;17.23;9.52;;;;;;;;;;5052728;28;20666;-78
2022/01/10 05:57:55;;;;;;;10.93;7.68;;;;;;;;;;5041500;28;20200;-78
2022/01/10 06:00:23;;;;;;;12.90;8.50;;;;;;;;;;5058648;28;20403;-78
2022/01/10 06:02:50;;;;;;;13.52;8.90;;;;;;;;;;5064259;28;20206;-78
2022/01/10 06:05:19;;;;;;;13.95;9.13;;;;;;;;;;5063180;28;20225;-78
2022/01/10 06:07:48;;;;;;;17.50;10.25;;;;;;;;;;5050230;28;20226;-76
2022/01/10 06:10:15;;;;;;;13.23;10.13;;;;;;;;;;5033651;28;20611;-77
2022/01/10 06:12:42;;;;;;;18.90;9.77;;;;;;;;;;5054565;28;20211;-78
2022/01/10 06:15:09;;;;;;;13.13;9.60;;;;;;;;;;5056703;28;20207;-77
2022/01/10 06:17:36;;;;;;;11.00;7.93;;;;;;;;;;5070848;28;20210;-78
2022/01/10 06:20:04;;;;;;;18.02;9.55;;;;;;;;;;5070667;28;20199;-80
2022/01/10 06:22:33;;;;;;;15.52;9.52;;;;;;;;;;5059792;28;20262;-78
2022/01/10 06:25:00;;;;;;;10.07;8.88;;;;;;;;;;5068141;28;20639;-78
2022/01/10 06:27:28;;;;;;;15.27;9.15;;;;;;;;;;5065056;28;20199;-78
2022/01/10 06:29:55;;;;;;;15.02;9.60;;;;;;;;;;5067499;28;20195;-78
2022/01/10 06:32:22;;;;;;;17.40;9.93;;;;;;;;;;5070798;28;20206;-79
2022/01/10 06:34:50;;;;;;;12.20;9.00;;;;;;;;;;5066476;28;20209;-78
2022/01/10 06:37:17;;;;;;;11.48;8.48;;;;;;;;;;5070609;28;20249;-79
2022/01/10 06:39:46;;;;;;;16.85;9.48;;;;;;;;;;5051668;28;20202;-77
2022/01/10 06:42:13;;;;;;;12.65;7.72;;;;;;;;;;5049365;28;20214;-77
2022/01/10 06:44:40;;;;;;;12.45;8.77;;;;;;;;;;5039636;28;20203;-78
2022/01/10 06:47:08;;;;;;;17.05;12.05;;;;;;;;;;5054496;28;20256;-78
2022/01/10 06:49:35;;;;;;;14.07;9.32;;;;;;;;;;5060897;28;20196;-78
2022/01/10 06:52:02;;;;;;;13.40;9.20;;;;;;;;;;5058037;28;20210;-78
2022/01/10 06:54:29;;;;;;;15.10;9.80;;;;;;;;;;5038581;28;20210;-77
2022/01/10 06:56:58;;;;;;;11.38;9.35;;;;;;;;;;5049987;28;20211;-77
2022/01/10 06:59:26;;;;;;;15.05;9.63;;;;;;;;;;5032800;28;20210;-76
2022/01/10 07:01:58;;;;;;;14.82;9.55;;;;;;;;;;5047557;28;20234;-76
2022/01/10 07:04:25;;;;;;;12.27;8.95;;;;;;;;;;5050957;28;20202;-78
2022/01/10 07:06:52;;;;;;;17.02;9.85;;;;;;;;;;5041737;28;20647;-77
2022/01/10 07:09:19;;;;;;;16.42;9.25;;;;;;;;;;5062649;28;20199;-78
2022/01/10 07:11:46;;;;;;;12.20;10.40;;;;;;;;;;5059301;28;20192;-78
2022/01/10 07:14:16;;;;;;;12.30;8.25;;;;;;;;;;5068627;28;20217;-79
2022/01/10 07:16:44;;;;;;;12.95;9.63;;;;;;;;;;5052977;28;20259;-78
2022/01/10 07:19:11;;;;;;;15.60;11.77;;;;;;;;;;5066055;28;20203;-78
2022/01/10 07:21:43;;;;;;;12.00;9.15;;;;;;;;;;5078150;28;20248;-77
2022/01/10 07:24:10;;;;;;;14.48;9.55;;;;;;;;;;5047676;28;20630;-76
2022/01/10 07:26:39;;;;;;;15.23;10.60;;;;;;;;;;5037148;28;20561;-76
2022/01/10 07:29:11;;;;;;;18.13;10.80;;;;;;;;;;5036501;28;20204;-76
2022/01/10 07:31:40;;;;;;;16.70;10.27;;;;;;;;;;5044843;28;20286;-75
2022/01/10 07:34:10;;;;;;;11.93;9.48;;;;;;;;;;5049065;28;20200;-76
2022/01/10 07:36:37;;;;;;;18.42;9.93;;;;;;;;;;5057659;28;20201;-76
2022/01/10 07:39:04;;;;;;;15.10;8.57;;;;;;;;;;5039225;28;20196;-76
2022/01/10 07:41:32;;;;;;;21.90;10.73;;;;;;;;;;5051634;28;20219;-77
2022/01/10 07:43:59;;;;;;;19.40;10.40;;;;;;;;;;5050124;28;20292;-76
2022/01/10 07:46:26;;;;;;;14.60;9.55;;;;;;;;;;5047240;28;20195;-76
2022/01/10 07:48:55;;;;;;;11.63;9.73;;;;;;;;;;5056864;28;20673;-76
2022/01/10 07:51:22;;;;;;;16.15;10.50;;;;;;;;;;5038328;28;20634;-75
2022/01/10 07:53:49;;;;;;;13.93;9.85;;;;;;;;;;5044548;28;20290;-76
2022/01/10 07:56:16;;;;;;;19.73;10.38;;;;;;;;;;5046261;28;20603;-76
2022/01/10 07:58:46;;;;;;;17.75;9.93;;;;;;;;;;5047439;28;20209;-76
2022/01/10 08:01:13;;;;;;;15.50;9.60;;;;;;;;;;5033609;28;20310;-76
2022/01/10 08:03:42;;;;;;;16.00;8.35;;;;;;;;;;5039917;28;20203;-75
2022/01/10 08:06:10;;;;;;;14.07;10.25;;;;;;;;;;5039808;28;20273;-75
2022/01/10 08:08:38;;;;;;;15.10;10.07;;;;;;;;;;5048133;28;20200;-75
2022/01/10 08:11:05;;;;;;;13.93;10.75;;;;;;;;;;5044808;28;20202;-76
2022/01/10 08:13:32;;;;;;;16.05;10.90;;;;;;;;;;5043777;28;20214;-76
2022/01/10 08:15:59;;;;;;;10.90;7.65;;;;;;;;;;5038518;28;20253;-76
2022/01/10 08:18:26;;;;;;;14.48;10.05;;;;;;;;;;5045759;28;20730;-76
2022/01/10 08:20:54;;;;;;;14.88;9.57;;;;;;;;;;5053541;28;20199;-76
2022/01/10 08:23:22;;;;;;;15.32;9.52;;;;;;;;;;5060900;28;20210;-76
2022/01/10 08:25:49;;;;;;;17.15;10.45;;;;;;;;;;5058051;28;20198;-77
2022/01/10 08:28:16;;;;;;;12.20;9.00;;;;;;;;;;5051165;28;20198;-76
2022/01/10 08:30:44;;;;;;;14.70;10.65;;;;;;;;;;5065415;28;20194;-76
2022/01/10 08:33:11;;;;;;;15.57;9.20;;;;;;;;;;5056453;28;20289;-77
2022/01/10 08:35:38;;;;;;;12.00;9.23;;;;;;;;;;5059600;28;20666;-76
2022/01/10 08:38:05;;;;;;;11.65;8.25;;;;;;;;;;5057705;28;20221;-78
2022/01/10 08:40:33;;;;;;;16.15;9.70;;;;;;;;;;5066798;28;20219;-77
2022/01/10 08:43:06;;;;;;;15.23;9.93;;;;;;;;;;5053819;28;20216;-76
2022/01/10 08:45:33;;;;;;;14.15;9.60;;;;;;;;;;5051771;28;20195;-76
2022/01/10 08:48:00;;;;;;;14.88;9.48;;;;;;;;;;5046486;28;20207;-76
2022/01/10 08:50:27;;;;;;;17.20;10.95;;;;;;;;;;5044286;28;20206;-76
2022/01/10 08:52:55;;;;;;;11.63;9.65;;;;;;;;;;5038859;28;20192;-77
2022/01/10 08:55:22;;;;;;;16.13;10.40;;;;;;;;;;5035918;28;20207;-76
2022/01/10 08:57:53;;;;;;;13.52;10.40;;;;;;;;;;5032826;28;20206;-77
2022/01/10 09:00:20;;;;;;;12.88;10.63;;;;;;;;;;5045394;28;20200;-76
2022/01/10 09:02:48;;;;;;;16.38;10.77;;;;;;;;;;5049619;28;20227;-76
2022/01/10 09:05:15;;;;;;;15.38;10.55;;;;;;;;;;5040148;28;20690;-77
2022/01/10 09:07:42;;;;;;;17.20;10.02;;;;;;;;;;5050840;28;20211;-77
2022/01/10 09:10:09;;;;;;;14.95;10.15;;;;;;;;;;5037986;28;20206;-77
2022/01/10 09:12:38;;;;;;;20.67;13.02;;;;;;;;;;5038075;28;20223;-78
2022/01/10 09:15:07;;;;;;;20.38;11.65;;;;;;;;;;5034196;28;20196;-78
2022/01/10 09:17:35;;;;;;;17.80;11.88;;;;;;;;;;5025041;28;20190;-78
2022/01/10 09:20:03;;;;;;;20.08;10.40;;;;;;;;;;5039333;28;20735;-77
2022/01/10 09:22:31;;;;;;;19.60;12.30;;;;;;;;;;5045546;28;20246;-78
2022/01/10 09:25:00;;;;;;;28.33;14.10;;;;;;;;;;5041322;28;20199;-78
2022/01/10 09:27:27;;;;;;;15.50;11.02;;;;;;;;;;5042531;28;20199;-78
2022/01/10 09:29:57;;;;;;;15.82;9.55;;;;;;;;;;5027029;28;20195;-77
2022/01/10 09:32:26;;;;;;;15.63;10.55;;;;;;;;;;5038074;28;20192;-80
2022/01/10 09:34:53;;;;;;;19.13;13.15;;;;;;;;;;5035469;28;20565;-80
2022/01/10 09:37:20;;;;;;;23.90;12.75;;;;;;;;;;5038850;28;20211;-81
2022/01/10 09:39:47;;;;;;;18.77;11.65;;;;;;;;;;5036622;28;20211;-80
2022/01/10 09:42:15;;;;;;;19.33;12.63;;;;;;;;;;5030981;28;20211;-80
2022/01/10 09:44:42;;;;;;;17.13;11.63;;;;;;;;;;5044720;28;20249;-80
2022/01/10 09:47:09;;;;;;;16.75;11.10;;;;;;;;;;5034435;28;20199;-79
2022/01/10 09:49:38;;;;;;;24.85;13.85;;;;;;;;;;5036203;28;20229;-81
2022/01/10 09:52:05;;;;;;;16.63;12.95;;;;;;;;;;5040147;28;20202;-80
2022/01/10 09:54:32;;;;;;;18.15;12.88;;;;;;;;;;5043265;28;20211;-80
2022/01/10 09:56:59;;;;;;;23.65;11.27;;;;;;;;;;5043132;28;20209;-80
2022/01/10 09:59:28;;;;;;;25.75;13.38;;;;;;;;;;5035044;28;20655;-81
2022/01/10 10:01:56;;;;;;;19.67;12.02;;;;;;;;;;5030328;28;20223;-80
2022/01/10 10:04:23;;;;;;;17.73;13.15;;;;;;;;;;5039684;28;20206;-80
2022/01/10 10:06:52;;;;;;;20.20;12.82;;;;;;;;;;5049238;28;20654;-80
2022/01/10 10:09:19;;;;;;;15.27;10.88;;;;;;;;;;5039094;28;20582;-80
2022/01/10 10:11:48;;;;;;;18.65;12.38;;;;;;;;;;5040164;28;20191;-80
2022/01/10 10:14:17;;;;;;;17.88;13.77;;;;;;;;;;5046300;28;20218;-80
2022/01/10 10:16:49;;;;;;;19.92;12.73;;;;;;;;;;5035701;28;20223;-80
2022/01/10 10:19:16;;;;;;;25.95;12.38;;;;;;;;;;5037827;28;20253;-81
2022/01/10 10:21:44;;;;;;;16.50;11.13;;;;;;;;;;5041191;28;20195;-80
2022/01/10 10:24:13;;;;;;;17.55;10.40;;;;;;;;;;5044612;28;20203;-79
2022/01/10 10:26:40;;;;;;;15.68;10.10;;;;;;;;;;5052476;28;20199;-78
2022/01/10 10:29:13;;;;;;;11.60;9.93;;;;;;;;;;5045806;28;20202;-78
2022/01/10 10:31:44;;;;;;;15.43;11.00;;;;;;;;;;5046646;28;20218;-77
2022/01/10 10:34:12;;;;;;;15.57;10.35;;;;;;;;;;5051715;28;20268;-78
2022/01/10 10:36:41;;;;;;;14.55;9.50;;;;;;;;;;5045267;28;20566;-77
2022/01/10 10:39:19;;;;;;;15.40;9.82;;;;;;;;;;5051677;28;20199;-77
2022/01/10 10:41:46;;;;;;;14.98;9.07;;;;;;;;;;5037722;28;20203;-78
2022/01/10 10:44:17;;;;;;;17.02;10.55;;;;;;;;;;5043350;28;20188;-77
2022/01/10 10:46:44;;;;;;;20.95;11.98;;;;;;;;;;5065330;28;20199;-78
2022/01/10 10:49:14;;;;;;;17.45;12.00;;;;;;;;;;5072334;28;20202;-78
2022/01/10 10:51:45;;;;;;;14.93;10.00;;;;;;;;;;5065926;28;20267;-78
2022/01/10 10:54:14;;;;;;;20.58;10.30;;;;;;;;;;5064652;28;20214;-78
2022/01/10 10:56:43;;;;;;;17.75;10.50;;;;;;;;;;5061725;28;20164;-78
2022/01/10 10:59:11;;;;;;;17.98;11.90;;;;;;;;;;5055810;28;20230;-78
2022/01/10 11:01:40;;;;;;;16.75;11.13;;;;;;;;;;5056386;28;20264;-77
2022/01/10 11:04:09;;;;;;;19.42;12.35;;;;;;;;;;5072132;28;20235;-78
2022/01/10 11:06:36;;;;;;;18.58;12.10;;;;;;;;;;5070516;28;20218;-78
2022/01/10 11:09:06;;;;;;;18.92;11.07;;;;;;;;;;5061597;28;20203;-78
2022/01/10 11:11:36;;;;;;;14.80;11.13;;;;;;;;;;5066738;28;20198;-78
2022/01/10 11:14:05;;;;;;;12.50;9.60;;;;;;;;;;5080119;28;20202;-78
2022/01/10 11:16:32;;;;;;;17.02;11.75;;;;;;;;;;5065853;28;20202;-78
2022/01/10 11:18:59;;;;;;;12.68;9.98;;;;;;;;;;5057312;28;20270;-78
2022/01/10 11:21:27;;;;;;;13.85;8.93;;;;;;;;;;5087291;28;20205;-78
2022/01/10 11:23:56;;;;;;;13.13;9.60;;;;;;;;;;5068968;28;20228;-78
2022/01/10 11:26:23;;;;;;;11.00;9.00;;;;;;;;;;5057230;28;20207;-77
2022/01/10 11:28:52;;;;;;;20.10;9.50;;;;;;;;;;5071128;28;20207;-78
2022/01/10 11:31:22;;;;;;;15.20;9.05;;;;;;;;;;5060160;28;20277;-77
2022/01/10 11:33:50;;;;;;;15.13;10.90;;;;;;;;;;5075775;28;20187;-78
2022/01/10 11:36:25;;;;;;;15.35;9.65;;;;;;;;;;5072497;28;20223;-78
2022/01/10 11:38:53;;;;;;;13.85;9.48;;;;;;;;;;5070179;28;20195;-78
2022/01/10 11:41:21;;;;;;;12.93;8.98;;;;;;;;;;5064238;28;20202;-78
2022/01/10 11:43:52;;;;;;;15.98;9.77;;;;;;;;;;5061761;28;20217;-77
2022/01/10 11:46:25;;;;;;;14.73;8.40;;;;;;;;;;5062687;28;20207;-77
2022/01/10 11:48:55;;;;;;;21.58;10.82;;;;;;;;;;5070008;28;20191;-77
2022/01/10 11:51:25;;;;;;;12.52;10.25;;;;;;;;;;5066543;28;20203;-77
2022/01/10 11:53:53;;;;;;;12.82;9.68;;;;;;;;;;5060298;28;20200;-78
2022/01/10 11:56:23;;;;;;;14.38;9.02;;;;;;;;;;5066389;28;20199;-78
2022/01/10 11:59:09;;;;;;;17.23;9.95;;;;;;;;;;5065884;28;20787;-77
2022/01/10 12:01:39;;;;;;;18.67;10.88;;;;;;;;;;5068161;28;20191;-77
2022/01/10 12:04:06;;;;;;;17.23;10.65;;;;;;;;;;5068114;28;20760;-77
2022/01/10 12:06:34;;;;;;;20.20;11.00;;;;;;;;;;5073644;28;20651;-78
2022/01/10 12:09:02;;;;;;;19.98;10.93;;;;;;;;;;5070214;28;20209;-78
2022/01/10 12:11:29;;;;;;;23.10;10.75;;;;;;;;;;5068039;28;20202;-78
2022/01/10 12:13:59;;;;;;;17.33;13.45;;;;;;;;;;5070595;28;20330;-78
2022/01/10 12:16:27;;;;;;;15.30;9.57;;;;;;;;;;5071290;28;20237;-78
2022/01/10 12:18:56;;;;;;;11.98;10.18;;;;;;;;;;5064243;28;20198;-78
2022/01/10 12:21:23;;;;;;;17.50;9.27;;;;;;;;;;5072592;28;20201;-78
2022/01/10 12:23:56;;;;;;;15.90;10.63;;;;;;;;;;5061577;28;20215;-78
2022/01/10 12:26:26;;;;;;;21.45;12.45;;;;;;;;;;5075259;28;20271;-77
2022/01/10 12:28:54;;;;;;;16.90;10.57;;;;;;;;;;5068732;28;20237;-78
2022/01/10 12:31:25;;;;;;;23.45;11.57;;;;;;;;;;5065267;28;20209;-75
2022/01/10 12:33:53;;;;;;;18.27;10.70;;;;;;;;;;5072500;28;20202;-78
2022/01/10 12:36:22;;;;;;;24.27;11.95;;;;;;;;;;5062983;28;20270;-78
2022/01/10 12:38:51;;;;;;;15.25;11.45;;;;;;;;;;5058321;28;20206;-78
2022/01/10 12:41:20;;;;;;;19.15;12.80;;;;;;;;;;5062186;28;20199;-78
2022/01/10 12:43:48;;;;;;;15.77;10.60;;;;;;;;;;5072459;28;20233;-78
2022/01/10 12:46:15;;;;;;;16.95;11.40;;;;;;;;;;5064748;28;20205;-78
2022/01/10 12:48:46;;;;;;;17.63;11.32;;;;;;;;;;5070410;28;20877;-77
2022/01/10 12:51:13;;;;;;;30.48;10.23;;;;;;;;;;5069244;28;20215;-76
2022/01/10 12:53:41;;;;;;;20.50;11.65;;;;;;;;;;5062130;28;20631;-78
2022/01/10 12:56:09;;;;;;;20.02;9.55;;;;;;;;;;5056939;28;20205;-78
2022/01/10 12:58:37;;;;;;;15.57;11.13;;;;;;;;;;5066849;28;20192;-78
2022/01/10 13:01:11;;;;;;;18.98;11.05;;;;;;;;;;5062664;28;20290;-78
2022/01/10 13:03:38;;;;;;;18.77;10.75;;;;;;;;;;5062206;28;20275;-78
2022/01/10 13:06:09;;;;;;;15.68;9.57;;;;;;;;;;5049999;28;20475;-78
2022/01/10 13:08:40;;;;;;;18.65;10.32;;;;;;;;;;5066681;28;20187;-78
2022/01/10 13:11:14;;;;;;;14.77;8.93;;;;;;;;;;5060726;28;20270;-78
2022/01/10 13:13:44;;;;;;;14.40;9.43;;;;;;;;;;5048253;28;20206;-77
2022/01/10 13:16:27;;;;;;;15.60;10.02;;;;;;;;;;5048166;28;20210;-78
2022/01/10 13:18:55;;;;;;;16.80;8.40;;;;;;;;;;5043726;28;20197;-76
2022/01/10 13:21:27;;;;;;;12.15;8.75;;;;;;;;;;5061486;28;20206;-76
2022/01/10 13:24:06;;;;;;;11.98;7.70;;;;;;;;;;5048681;28;20302;-76
2022/01/10 13:26:35;;;;;;;12.75;8.32;;;;;;;;;;5073443;28;20197;-77
2022/01/10 13:29:04;;;;;;;11.95;7.18;;;;;;;;;;5057464;28;20214;-77
2022/01/10 13:31:36;;;;;;;18.50;7.82;;;;;;;;;;5042392;28;20639;-77
2022/01/10 13:34:03;;;;;;;16.23;8.27;;;;;;;;;;5038425;28;20234;-77
2022/01/10 13:36:42;;;;;;;15.75;8.00;;;;;;;;;;5054215;28;20487;-76
2022/01/10 13:39:17;;;;;;;12.30;8.55;;;;;;;;;;5051076;28;20206;-77
2022/01/10 13:41:59;;;;;;;13.95;7.53;;;;;;;;;;5049898;28;20205;-76
2022/01/10 13:44:27;;;;;;;7.95;6.68;;;;;;;;;;5056550;28;20237;-76
2022/01/10 13:47:02;;;;;;;9.90;7.30;;;;;;;;;;5045440;28;20203;-77
2022/01/10 13:49:29;;;;;;;12.30;7.68;;;;;;;;;;5039518;28;20226;-76
2022/01/10 13:52:10;;;;;;;12.95;8.02;;;;;;;;;;5033602;28;20206;-77
2022/01/10 13:54:37;;;;;;;8.82;6.65;;;;;;;;;;5035331;28;20196;-76
2022/01/10 13:57:16;;;;;;;12.63;7.13;;;;;;;;;;5050203;28;20206;-77
2022/01/10 13:59:43;;;;;;;8.50;7.63;;;;;;;;;;5050397;28;20202;-76
2022/01/10 14:02:12;;;;;;;9.27;6.38;;;;;;;;;;5044925;28;20214;-77
2022/01/10 14:04:41;;;;;;;7.38;5.65;;;;;;;;;;5049043;28;20581;-77
2022/01/10 14:07:09;;;;;;;8.88;5.85;;;;;;;;;;5047912;28;20287;-77
2022/01/10 14:09:37;;;;;;;6.78;6.03;;;;;;;;;;5060942;28;20203;-78
2022/01/10 14:12:09;;;;;;;8.95;6.68;;;;;;;;;;5061358;28;20208;-77
2022/01/10 14:14:38;;;;;;;11.85;6.60;;;;;;;;;;5050840;28;20202;-77
2022/01/10 14:17:07;;;;;;;11.07;6.90;;;;;;;;;;5052405;28;20203;-78
2022/01/10 14:19:34;;;;;;;11.48;7.35;;;;;;;;;;5052530;28;20565;-79
2022/01/10 14:22:02;;;;;;;9.93;7.13;;;;;;;;;;5043936;28;20234;-78
2022/01/10 14:24:30;;;;;;;12.18;6.97;;;;;;;;;;5050489;28;20694;-77
2022/01/10 14:26:58;;;;;;;10.48;7.05;;;;;;;;;;5050487;28;20202;-76
2022/01/10 14:29:25;;;;;;;11.65;8.23;;;;;;;;;;5051423;28;20627;-76
2022/01/10 14:31:54;;;;;;;11.73;7.00;;;;;;;;;;5057882;28;20697;-75
2022/01/10 14:34:21;;;;;;;8.77;6.70;;;;;;;;;;5059047;28;20646;-75
2022/01/10 14:36:48;;;;;;;12.25;7.20;;;;;;;;;;5048302;28;20192;-76
2022/01/10 14:39:15;;;;;;;10.63;6.68;;;;;;;;;;5044540;28;20222;-76
2022/01/10 14:41:42;;;;;;;14.57;6.57;;;;;;;;;;5046596;28;20733;-76